createdAt,value
2022-08-20T00:04:51.233Z,1.79
2022-08-20T00:09:55.513Z,2.36
2022-08-20T00:14:58.620Z,3.67
2022-08-20T00:20:01.961Z,5.60
2022-08-20T00:25:07.609Z,7.17
2022-08-20T00:30:14.499Z,8.69
2022-08-20T00:35:21.189Z,9.02
2022-08-20T00:40:28.293Z,9.72
2022-08-20T00:45:33.362Z,9.95
2022-08-20T00:50:38.313Z,9.06
2022-08-20T00:55:42.748Z,8.43
2022-08-20T01:00:47.648Z,8.80
2022-08-20T01:05:53.827Z,8.97
2022-08-20T01:11:12.608Z,9.20
2022-08-20T01:16:21.392Z,8.04
2022-08-20T01:21:28.530Z,8.42
2022-08-20T01:26:37.443Z,10.82
2022-08-20T01:31:41.933Z,13.91
2022-08-20T01:36:48.323Z,14.48
2022-08-20T01:42:04.197Z,13.91
2022-08-20T01:47:15.177Z,14.32
2022-08-20T01:52:25.342Z,14.13
2022-08-20T01:57:29.970Z,14.68
2022-08-20T02:02:32.858Z,14.61
2022-08-20T02:07:35.941Z,15.13
2022-08-20T02:12:40.517Z,13.77
2022-08-20T02:17:43.531Z,14.26
2022-08-20T02:22:50.355Z,13.29
2022-08-20T02:27:57.634Z,13.65
2022-08-20T02:33:02.574Z,13.69
2022-08-20T02:38:06.311Z,13.58
2022-08-20T02:43:12.390Z,14.28
2022-08-20T02:48:23.340Z,15.40
2022-08-20T02:53:27.779Z,15.97
2022-08-20T02:58:32.846Z,16.65
2022-08-20T03:03:35.782Z,16.42
2022-08-20T03:08:38.987Z,16.57
2022-08-20T03:13:43.564Z,16.10
2022-08-20T03:18:47.904Z,15.76
2022-08-20T03:23:57.066Z,15.82
2022-08-20T03:29:01.384Z,15.59
2022-08-20T03:34:05.469Z,16.08
2022-08-20T03:39:11.976Z,16.36
2022-08-20T03:44:16.907Z,17.07
2022-08-20T03:49:20.750Z,16.84
2022-08-20T03:54:24.670Z,16.67
2022-08-20T03:59:36.990Z,17.24
2022-08-20T04:04:40.957Z,16.85
2022-08-20T04:09:44.257Z,16.60
2022-08-20T04:14:49.794Z,16.05
2022-08-20T04:19:53.252Z,16.29
2022-08-20T04:24:56.318Z,16.99
2022-08-20T04:30:03.705Z,16.75
2022-08-20T04:35:09.021Z,16.33
2022-08-20T04:40:34.382Z,16.12
2022-08-20T04:45:38.666Z,16.45
2022-08-20T04:50:44.376Z,16.72
2022-08-20T04:55:47.376Z,15.95
2022-08-20T05:00:55.641Z,15.79
2022-08-20T05:06:06.265Z,14.45
2022-08-20T05:11:34.845Z,13.25
2022-08-20T05:16:41.015Z,12.65
2022-08-20T05:21:44.010Z,13.29
2022-08-20T05:26:47.126Z,11.53
2022-08-20T05:31:51.447Z,12.33
2022-08-20T05:36:55.382Z,10.64
2022-08-20T05:41:59.428Z,9.65
2022-08-20T05:47:04.773Z,9.39
2022-08-20T05:52:07.936Z,9.58
2022-08-20T05:57:10.950Z,9.50
2022-08-20T06:02:34.441Z,9.50
2022-08-20T06:07:38.872Z,9.14
2022-08-20T06:12:44.834Z,8.76
2022-08-20T06:17:58.056Z,9.99
2022-08-20T06:23:01.480Z,9.08
2022-08-20T06:28:05.537Z,9.52
2022-08-20T06:33:09.867Z,8.18
2022-08-20T06:38:13.129Z,9.78
2022-08-20T06:43:16.286Z,10.50
2022-08-20T06:48:20.833Z,10.64
2022-08-20T06:53:23.858Z,7.63
2022-08-20T06:58:37.764Z,6.97
2022-08-20T07:03:54.336Z,6.57
2022-08-20T07:08:59.318Z,5.65
2022-08-20T07:14:05.610Z,6.64
2022-08-20T07:19:10.383Z,7.14
2022-08-20T07:24:13.309Z,3.93
2022-08-20T07:29:16.282Z,0.48
2022-08-20T07:34:27.268Z,-0.69
2022-08-20T07:39:30.572Z,-0.64
2022-08-20T07:44:35.156Z,-0.29
2022-08-20T07:49:40.177Z,-1.05
2022-08-20T07:54:44.620Z,-4.15
2022-08-20T07:59:49.136Z,-3.47
2022-08-20T08:04:55.906Z,-4.73
2022-08-20T08:10:08.646Z,115.52
2022-08-20T08:15:17.831Z,114.92
2022-08-20T08:20:24.106Z,113.71
2022-08-20T08:25:27.285Z,113.20
2022-08-20T08:30:30.394Z,113.45
2022-08-20T08:35:37.529Z,113.58
2022-08-20T08:40:43.955Z,113.15
2022-08-20T08:45:52.712Z,113.88
2022-08-20T08:50:58.855Z,110.87
2022-08-20T08:56:01.922Z,109.55
2022-08-20T09:01:13.919Z,103.22
2022-08-20T09:06:36.940Z,100.35
2022-08-20T09:11:48.158Z,97.96
2022-08-20T09:16:52.713Z,101.64
2022-08-20T09:21:58.438Z,96.95
2022-08-20T09:27:01.734Z,95.77
2022-08-20T09:32:07.132Z,98.70
2022-08-20T09:37:12.778Z,98.85
2022-08-20T09:42:18.030Z,94.21
2022-08-20T09:47:20.939Z,93.34
2022-08-20T09:52:27.944Z,93.62
2022-08-20T09:57:31.733Z,93.29
2022-08-20T10:02:34.664Z,90.47
2022-08-20T10:07:40.187Z,93.30
2022-08-20T10:12:43.475Z,89.81
2022-08-20T10:17:46.279Z,90.16
2022-08-20T10:22:50.686Z,90.59
2022-08-20T10:27:53.590Z,88.44
2022-08-20T10:32:56.622Z,87.16
2022-08-20T10:38:01.100Z,85.18
2022-08-20T10:43:04.558Z,86.03
2022-08-20T10:48:08.205Z,88.91
2022-08-20T10:53:14.194Z,86.63
2022-08-20T10:58:17.467Z,86.77
2022-08-20T11:03:23.111Z,85.76
2022-08-20T11:08:34.261Z,85.56
2022-08-20T11:13:39.870Z,85.28
2022-08-20T11:18:46.892Z,86.39
2022-08-20T11:23:52.057Z,85.77
2022-08-20T11:28:54.804Z,84.19
2022-08-20T11:33:57.755Z,83.04
2022-08-20T11:39:01.971Z,87.64
2022-08-20T11:44:20.990Z,85.90
2022-08-20T11:49:24.319Z,85.64
2022-08-20T11:54:29.317Z,83.26
2022-08-20T11:59:32.587Z,85.24
2022-08-20T12:04:35.488Z,81.26
2022-08-20T12:09:41.942Z,81.45
2022-08-20T12:14:55.512Z,81.64
2022-08-20T12:20:00.790Z,81.80
2022-08-20T12:25:07.216Z,84.93
2022-08-20T12:30:14.100Z,82.64
2022-08-20T12:35:18.516Z,81.30
2022-08-20T12:40:31.829Z,79.43
2022-08-20T12:45:36.869Z,82.73
2022-08-20T12:50:42.007Z,78.88
2022-08-20T12:55:46.726Z,78.47
2022-08-20T13:00:51.105Z,79.84
2022-08-20T13:05:54.759Z,77.54
2022-08-20T13:10:59.383Z,81.50
2022-08-20T13:16:02.211Z,82.76
2022-08-20T13:21:05.409Z,83.10
2022-08-20T13:26:10.116Z,78.05
2022-08-20T13:31:13.134Z,78.14
2022-08-20T13:36:16.057Z,78.32
2022-08-20T13:41:20.531Z,77.82
2022-08-20T13:46:23.558Z,76.14
2022-08-20T13:51:27.684Z,76.63
2022-08-20T13:56:34.929Z,76.20
2022-08-20T14:01:38.093Z,80.14
2022-08-20T14:06:40.905Z,78.37
2022-08-20T14:11:45.274Z,77.13
2022-08-20T14:16:48.511Z,77.21
2022-08-20T14:21:51.457Z,77.92
2022-08-20T14:26:55.981Z,79.66
2022-08-20T14:31:59.322Z,81.17
2022-08-20T14:37:11.609Z,80.15
2022-08-20T14:42:16.574Z,76.47
2022-08-20T14:47:21.073Z,79.71
2022-08-20T14:52:28.242Z,81.23
2022-08-20T14:57:33.588Z,80.07
2022-08-20T15:02:37.113Z,81.70
2022-08-20T15:07:42.194Z,82.97
2022-08-20T15:12:46.575Z,78.84
2022-08-20T15:17:51.885Z,78.43
2022-08-20T15:22:55.507Z,77.48
2022-08-20T15:28:01.762Z,79.21
2022-08-20T15:33:05.103Z,81.51
2022-08-20T15:38:07.910Z,82.91
2022-08-20T15:43:12.240Z,81.26
2022-08-20T15:48:19.392Z,81.85
2022-08-20T15:53:27.401Z,81.72
2022-08-20T15:58:39.240Z,82.21
2022-08-20T16:04:08.417Z,82.36
2022-08-20T16:09:38.253Z,83.02
2022-08-20T16:14:47.269Z,83.07
2022-08-20T16:19:58.136Z,83.74
2022-08-20T16:25:02.342Z,84.64
2022-08-20T16:30:11.310Z,85.51
2022-08-20T16:35:30.199Z,86.56
2022-08-20T16:40:39.273Z,86.88
2022-08-20T16:45:51.580Z,87.52
2022-08-20T16:50:58.609Z,88.38
2022-08-20T16:56:01.614Z,89.02
2022-08-20T17:01:09.378Z,89.02
2022-08-20T17:06:19.734Z,90.19
2022-08-20T17:11:26.800Z,90.23
2022-08-20T17:16:35.881Z,91.23
2022-08-20T17:21:39.732Z,91.99
2022-08-20T17:26:46.458Z,91.91
2022-08-20T17:31:53.502Z,92.90
2022-08-20T17:36:58.588Z,93.90
2022-08-20T17:42:08.035Z,94.15
2022-08-20T17:47:16.504Z,94.88
2022-08-20T17:52:24.796Z,95.71
2022-08-20T17:57:33.372Z,95.86
2022-08-20T18:02:37.884Z,96.71
2022-08-20T18:07:51.676Z,97.78
2022-08-20T18:12:59.118Z,98.75
2022-08-20T18:18:25.188Z,100.22
2022-08-20T18:23:32.103Z,100.38
2022-08-20T18:28:39.570Z,101.73
2022-08-20T18:33:44.183Z,102.53
2022-08-20T18:38:59.621Z,103.27
2022-08-20T18:44:09.073Z,103.51
2022-08-20T18:49:13.980Z,104.44
2022-08-20T18:54:24.854Z,104.84
2022-08-20T18:59:30.611Z,105.31
2022-08-20T19:04:35.819Z,106.08
2022-08-20T19:09:56.375Z,106.94
2022-08-20T19:15:03.818Z,108.46
2022-08-20T19:20:16.423Z,111.65
2022-08-20T19:25:29.033Z,113.49
2022-08-20T19:30:40.352Z,110.92
2022-08-20T19:35:45.165Z,112.68
2022-08-20T19:40:48.066Z,113.10
2022-08-20T19:45:57.097Z,113.39
2022-08-20T19:51:10.073Z,113.96
2022-08-20T19:56:17.522Z,114.50
2022-08-20T20:01:21.948Z,115.47
2022-08-20T20:06:28.207Z,116.27
2022-08-20T20:11:35.234Z,116.67
2022-08-20T20:16:40.138Z,117.27
2022-08-20T20:21:46.538Z,117.85
2022-08-20T20:26:50.163Z,-5.98
2022-08-20T20:31:55.598Z,-5.63
2022-08-20T20:37:07.483Z,-4.83
2022-08-20T20:42:13.123Z,-3.75
2022-08-20T20:47:20.559Z,-3.58
2022-08-20T20:52:30.928Z,-3.65
2022-08-20T20:57:38.606Z,-2.21
2022-08-20T21:02:42.596Z,-2.44
2022-08-20T21:07:50.502Z,-1.42
2022-08-20T21:12:55.691Z,-2.52
2022-08-20T21:17:59.817Z,-0.92
2022-08-20T21:23:05.403Z,-0.73
2022-08-20T21:28:08.712Z,0.68
2022-08-20T21:33:11.622Z,1.16
2022-08-20T21:38:16.213Z,2.34
2022-08-20T21:43:19.599Z,2.99
2022-08-20T21:48:24.102Z,3.98
2022-08-20T21:53:28.451Z,5.69
2022-08-20T21:58:31.789Z,7.38
2022-08-20T22:03:38.655Z,8.27
2022-08-20T22:08:43.415Z,6.92
2022-08-20T22:13:47.124Z,5.57
2022-08-20T22:18:50.747Z,6.98
2022-08-20T22:23:58.980Z,5.89
2022-08-20T22:29:02.332Z,5.67
2022-08-20T22:34:06.388Z,5.16
2022-08-20T22:39:11.131Z,5.59
2022-08-20T22:44:15.121Z,6.02
2022-08-20T22:49:28.115Z,6.26
2022-08-20T22:54:33.346Z,7.40
2022-08-20T22:59:41.429Z,7.60
2022-08-20T23:04:53.033Z,7.11
2022-08-20T23:09:59.035Z,8.15
2022-08-20T23:15:04.570Z,7.46
2022-08-20T23:20:10.364Z,6.85
2022-08-20T23:25:19.271Z,8.33
2022-08-20T23:30:26.905Z,8.16
2022-08-20T23:35:33.081Z,7.22
2022-08-20T23:40:37.901Z,8.25
2022-08-20T23:45:41.550Z,9.18
2022-08-20T23:50:44.638Z,9.85
2022-08-20T23:55:49.194Z,10.57
